sensor_id;sensor_type;location;lat;lon;timestamp;temperature;humidity
9975;DHT22;5028;50.974;4.968;2023-02-20T00:00:40;5.50;99.90
9975;DHT22;5028;50.974;4.968;2023-02-20T00:03:16;5.50;99.90
9975;DHT22;5028;50.974;4.968;2023-02-20T00:05:44;5.50;99.90
9975;DHT22;5028;50.974;4.968;2023-02-20T00:08:21;5.50;99.90
9975;DHT22;5028;50.974;4.968;2023-02-20T00:10:50;5.60;99.90
9975;DHT22;5028;50.974;4.968;2023-02-20T00:13:25;5.60;99.90
9975;DHT22;5028;50.974;4.968;2023-02-20T00:15:54;5.60;99.90
9975;DHT22;5028;50.974;4.968;2023-02-20T00:18:30;5.60;99.90
9975;DHT22;5028;50.974;4.968;2023-02-20T00:20:59;5.60;99.90
9975;DHT22;5028;50.974;4.968;2023-02-20T00:23:35;5.70;99.90
9975;DHT22;5028;50.974;4.968;2023-02-20T00:26:07;5.70;99.90
9975;DHT22;5028;50.974;4.968;2023-02-20T00:28:43;5.70;99.90
9975;DHT22;5028;50.974;4.968;2023-02-20T00:31:14;5.70;99.90
9975;DHT22;5028;50.974;4.968;2023-02-20T00:33:49;5.70;99.90
9975;DHT22;5028;50.974;4.968;2023-02-20T00:36:19;5.70;99.90
9975;DHT22;5028;50.974;4.968;2023-02-20T00:38:55;5.60;99.90
9975;DHT22;5028;50.974;4.968;2023-02-20T00:41:24;5.70;99.90
9975;DHT22;5028;50.974;4.968;2023-02-20T00:43:59;5.70;99.90
9975;DHT22;5028;50.974;4.968;2023-02-20T00:46:28;5.70;99.90
9975;DHT22;5028;50.974;4.968;2023-02-20T00:49:04;5.70;99.90
9975;DHT22;5028;50.974;4.968;2023-02-20T00:51:33;5.70;99.90
9975;DHT22;5028;50.974;4.968;2023-02-20T00:54:11;5.70;99.90
9975;DHT22;5028;50.974;4.968;2023-02-20T00:56:54;5.70;99.90
9975;DHT22;5028;50.974;4.968;2023-02-20T00:59:30;5.70;99.90
9975;DHT22;5028;50.974;4.968;2023-02-20T01:01:58;5.70;99.90
9975;DHT22;5028;50.974;4.968;2023-02-20T01:04:34;5.70;99.90
9975;DHT22;5028;50.974;4.968;2023-02-20T01:07:03;5.70;99.90
9975;DHT22;5028;50.974;4.968;2023-02-20T01:09:40;5.70;99.90
9975;DHT22;5028;50.974;4.968;2023-02-20T01:12:10;5.70;99.90
9975;DHT22;5028;50.974;4.968;2023-02-20T01:14:46;5.70;99.90
9975;DHT22;5028;50.974;4.968;2023-02-20T01:17:14;5.70;99.90
9975;DHT22;5028;50.974;4.968;2023-02-20T01:19:49;5.70;99.90
9975;DHT22;5028;50.974;4.968;2023-02-20T01:22:17;5.70;99.90
9975;DHT22;5028;50.974;4.968;2023-02-20T01:24:55;5.70;99.90
9975;DHT22;5028;50.974;4.968;2023-02-20T01:27:23;5.70;99.90
9975;DHT22;5028;50.974;4.968;2023-02-20T01:29:59;5.70;99.90
9975;DHT22;5028;50.974;4.968;2023-02-20T01:32:28;5.60;99.90
9975;DHT22;5028;50.974;4.968;2023-02-20T01:35:03;5.60;99.90
9975;DHT22;5028;50.974;4.968;2023-02-20T01:37:32;5.60;99.90
9975;DHT22;5028;50.974;4.968;2023-02-20T01:40:14;5.60;99.90
9975;DHT22;5028;50.974;4.968;2023-02-20T01:42:43;5.60;99.90
9975;DHT22;5028;50.974;4.968;2023-02-20T01:45:30;5.60;99.90
9975;DHT22;5028;50.974;4.968;2023-02-20T01:48:01;5.60;99.90
9975;DHT22;5028;50.974;4.968;2023-02-20T01:50:40;5.60;99.90
9975;DHT22;5028;50.974;4.968;2023-02-20T01:53:14;5.60;99.90
9975;DHT22;5028;50.974;4.968;2023-02-20T01:55:54;5.60;99.90
9975;DHT22;5028;50.974;4.968;2023-02-20T01:58:34;5.50;99.90
9975;DHT22;5028;50.974;4.968;2023-02-20T02:01:11;5.50;99.90
9975;DHT22;5028;50.974;4.968;2023-02-20T02:03:48;5.50;99.90
9975;DHT22;5028;50.974;4.968;2023-02-20T02:06:26;5.50;99.90
9975;DHT22;5028;50.974;4.968;2023-02-20T02:08:56;5.50;99.90
9975;DHT22;5028;50.974;4.968;2023-02-20T02:11:34;5.40;99.90
9975;DHT22;5028;50.974;4.968;2023-02-20T02:14:03;5.40;99.90
9975;DHT22;5028;50.974;4.968;2023-02-20T02:16:46;5.30;99.90
9975;DHT22;5028;50.974;4.968;2023-02-20T02:19:42;5.30;99.90
9975;DHT22;5028;50.974;4.968;2023-02-20T02:23:03;5.30;99.90
9975;DHT22;5028;50.974;4.968;2023-02-20T02:25:44;5.30;99.90
9975;DHT22;5028;50.974;4.968;2023-02-20T02:28:56;5.20;99.90
9975;DHT22;5028;50.974;4.968;2023-02-20T02:31:58;5.20;99.90
9975;DHT22;5028;50.974;4.968;2023-02-20T02:37:30;5.20;99.90
9975;DHT22;5028;50.974;4.968;2023-02-20T02:40:02;5.20;99.90
9975;DHT22;5028;50.974;4.968;2023-02-20T02:42:45;5.20;99.90
9975;DHT22;5028;50.974;4.968;2023-02-20T02:45:27;5.10;99.90
9975;DHT22;5028;50.974;4.968;2023-02-20T02:48:00;5.10;99.90
9975;DHT22;5028;50.974;4.968;2023-02-20T02:50:39;5.10;99.90
9975;DHT22;5028;50.974;4.968;2023-02-20T02:53:13;5.10;99.90
9975;DHT22;5028;50.974;4.968;2023-02-20T02:55:48;5.10;99.90
9975;DHT22;5028;50.974;4.968;2023-02-20T02:58:17;5.20;99.90
9975;DHT22;5028;50.974;4.968;2023-02-20T03:00:55;5.20;99.90
9975;DHT22;5028;50.974;4.968;2023-02-20T03:03:28;5.20;99.90
9975;DHT22;5028;50.974;4.968;2023-02-20T03:06:23;5.20;99.90
9975;DHT22;5028;50.974;4.968;2023-02-20T03:08:59;5.30;99.90
9975;DHT22;5028;50.974;4.968;2023-02-20T03:11:37;5.30;99.90
9975;DHT22;5028;50.974;4.968;2023-02-20T03:14:10;5.30;99.90
9975;DHT22;5028;50.974;4.968;2023-02-20T03:17:08;5.30;99.90
9975;DHT22;5028;50.974;4.968;2023-02-20T03:19:41;5.30;99.90
9975;DHT22;5028;50.974;4.968;2023-02-20T03:22:20;5.40;99.90
9975;DHT22;5028;50.974;4.968;2023-02-20T03:24:55;5.40;99.90
9975;DHT22;5028;50.974;4.968;2023-02-20T03:27:37;5.40;99.90
9975;DHT22;5028;50.974;4.968;2023-02-20T03:30:11;5.40;99.90
9975;DHT22;5028;50.974;4.968;2023-02-20T03:32:52;5.40;99.90
9975;DHT22;5028;50.974;4.968;2023-02-20T03:35:41;5.40;99.90
9975;DHT22;5028;50.974;4.968;2023-02-20T03:38:38;5.40;99.90
9975;DHT22;5028;50.974;4.968;2023-02-20T03:41:34;5.40;99.90
9975;DHT22;5028;50.974;4.968;2023-02-20T03:44:21;5.40;99.90
9975;DHT22;5028;50.974;4.968;2023-02-20T03:46:59;5.40;99.90
9975;DHT22;5028;50.974;4.968;2023-02-20T03:49:33;5.40;99.90
9975;DHT22;5028;50.974;4.968;2023-02-20T03:52:27;5.40;99.90
9975;DHT22;5028;50.974;4.968;2023-02-20T03:54:56;5.30;99.90
9975;DHT22;5028;50.974;4.968;2023-02-20T03:57:35;5.30;99.90
9975;DHT22;5028;50.974;4.968;2023-02-20T04:00:09;5.30;99.90
9975;DHT22;5028;50.974;4.968;2023-02-20T04:02:47;5.30;99.90
9975;DHT22;5028;50.974;4.968;2023-02-20T04:05:26;5.30;99.90
9975;DHT22;5028;50.974;4.968;2023-02-20T04:08:06;5.30;99.90
9975;DHT22;5028;50.974;4.968;2023-02-20T04:10:45;5.30;99.90
9975;DHT22;5028;50.974;4.968;2023-02-20T04:13:17;5.30;99.90
9975;DHT22;5028;50.974;4.968;2023-02-20T04:15:53;5.30;99.90
9975;DHT22;5028;50.974;4.968;2023-02-20T04:18:23;5.30;99.90
9975;DHT22;5028;50.974;4.968;2023-02-20T04:21:00;5.30;99.90
9975;DHT22;5028;50.974;4.968;2023-02-20T04:23:35;5.30;99.90
9975;DHT22;5028;50.974;4.968;2023-02-20T04:26:14;5.30;99.90
9975;DHT22;5028;50.974;4.968;2023-02-20T04:28:46;5.30;99.90
9975;DHT22;5028;50.974;4.968;2023-02-20T04:31:22;5.40;99.90
9975;DHT22;5028;50.974;4.968;2023-02-20T04:33:51;5.40;99.90
9975;DHT22;5028;50.974;4.968;2023-02-20T04:36:26;5.50;99.90
9975;DHT22;5028;50.974;4.968;2023-02-20T04:38:55;5.50;99.90
9975;DHT22;5028;50.974;4.968;2023-02-20T04:41:30;5.50;99.90
9975;DHT22;5028;50.974;4.968;2023-02-20T04:44:00;5.60;99.90
9975;DHT22;5028;50.974;4.968;2023-02-20T04:46:53;5.60;99.90
9975;DHT22;5028;50.974;4.968;2023-02-20T04:49:22;5.70;99.90
9975;DHT22;5028;50.974;4.968;2023-02-20T04:51:57;5.70;99.90
9975;DHT22;5028;50.974;4.968;2023-02-20T04:54:26;5.70;99.90
9975;DHT22;5028;50.974;4.968;2023-02-20T04:57:01;5.70;99.90
9975;DHT22;5028;50.974;4.968;2023-02-20T04:59:31;5.80;99.90
9975;DHT22;5028;50.974;4.968;2023-02-20T05:02:13;5.80;99.90
9975;DHT22;5028;50.974;4.968;2023-02-20T05:04:54;5.80;99.90
9975;DHT22;5028;50.974;4.968;2023-02-20T05:07:29;5.80;99.90
9975;DHT22;5028;50.974;4.968;2023-02-20T05:09:58;5.90;99.90
9975;DHT22;5028;50.974;4.968;2023-02-20T05:12:33;5.90;99.90
9975;DHT22;5028;50.974;4.968;2023-02-20T05:15:03;5.90;99.90
9975;DHT22;5028;50.974;4.968;2023-02-20T05:17:39;6.00;99.90
9975;DHT22;5028;50.974;4.968;2023-02-20T05:20:09;6.00;99.90
9975;DHT22;5028;50.974;4.968;2023-02-20T05:22:45;6.00;99.90
9975;DHT22;5028;50.974;4.968;2023-02-20T05:25:13;6.00;99.90
9975;DHT22;5028;50.974;4.968;2023-02-20T05:27:49;6.00;99.90
9975;DHT22;5028;50.974;4.968;2023-02-20T05:30:19;6.10;99.90
9975;DHT22;5028;50.974;4.968;2023-02-20T05:32:55;6.10;99.90
9975;DHT22;5028;50.974;4.968;2023-02-20T05:35:23;6.10;99.90
9975;DHT22;5028;50.974;4.968;2023-02-20T05:37:59;6.10;99.90
9975;DHT22;5028;50.974;4.968;2023-02-20T05:40:28;6.20;99.90
9975;DHT22;5028;50.974;4.968;2023-02-20T05:43:03;6.20;99.90
9975;DHT22;5028;50.974;4.968;2023-02-20T05:45:33;6.20;99.90
9975;DHT22;5028;50.974;4.968;2023-02-20T05:48:10;6.20;99.90
9975;DHT22;5028;50.974;4.968;2023-02-20T05:50:39;6.20;99.90
9975;DHT22;5028;50.974;4.968;2023-02-20T05:53:14;6.20;99.90
9975;DHT22;5028;50.974;4.968;2023-02-20T05:55:43;6.30;99.90
9975;DHT22;5028;50.974;4.968;2023-02-20T05:58:18;6.30;99.90
9975;DHT22;5028;50.974;4.968;2023-02-20T06:00:48;6.30;99.90
9975;DHT22;5028;50.974;4.968;2023-02-20T06:03:30;6.30;99.90
9975;DHT22;5028;50.974;4.968;2023-02-20T06:06:05;6.30;99.90
9975;DHT22;5028;50.974;4.968;2023-02-20T06:08:34;6.30;99.90
9975;DHT22;5028;50.974;4.968;2023-02-20T06:11:10;6.30;99.90
9975;DHT22;5028;50.974;4.968;2023-02-20T06:13:39;6.40;99.90
9975;DHT22;5028;50.974;4.968;2023-02-20T06:16:22;6.40;99.90
9975;DHT22;5028;50.974;4.968;2023-02-20T06:18:51;6.40;99.90
9975;DHT22;5028;50.974;4.968;2023-02-20T06:21:27;6.40;99.90
9975;DHT22;5028;50.974;4.968;2023-02-20T06:23:56;6.40;99.90
9975;DHT22;5028;50.974;4.968;2023-02-20T06:26:31;6.40;99.90
9975;DHT22;5028;50.974;4.968;2023-02-20T06:29:00;6.40;99.90
9975;DHT22;5028;50.974;4.968;2023-02-20T06:31:36;6.40;99.90
9975;DHT22;5028;50.974;4.968;2023-02-20T06:34:06;6.40;99.90
9975;DHT22;5028;50.974;4.968;2023-02-20T06:36:42;6.40;99.90
9975;DHT22;5028;50.974;4.968;2023-02-20T06:39:12;6.50;99.90
9975;DHT22;5028;50.974;4.968;2023-02-20T06:41:48;6.50;99.90
9975;DHT22;5028;50.974;4.968;2023-02-20T06:44:17;6.50;99.90
9975;DHT22;5028;50.974;4.968;2023-02-20T06:46:54;6.50;99.90
9975;DHT22;5028;50.974;4.968;2023-02-20T06:49:23;6.50;99.90
9975;DHT22;5028;50.974;4.968;2023-02-20T06:51:58;6.50;99.90
9975;DHT22;5028;50.974;4.968;2023-02-20T06:54:30;6.50;99.90
9975;DHT22;5028;50.974;4.968;2023-02-20T06:57:06;6.50;99.90
9975;DHT22;5028;50.974;4.968;2023-02-20T06:59:35;6.50;99.90
9975;DHT22;5028;50.974;4.968;2023-02-20T07:02:16;6.60;99.90
9975;DHT22;5028;50.974;4.968;2023-02-20T07:04:58;6.60;99.90
9975;DHT22;5028;50.974;4.968;2023-02-20T07:07:33;6.60;99.90
9975;DHT22;5028;50.974;4.968;2023-02-20T07:10:02;6.60;99.90
9975;DHT22;5028;50.974;4.968;2023-02-20T07:12:38;6.60;99.90
9975;DHT22;5028;50.974;4.968;2023-02-20T07:15:07;6.60;99.90
9975;DHT22;5028;50.974;4.968;2023-02-20T07:17:47;6.60;99.90
9975;DHT22;5028;50.974;4.968;2023-02-20T07:20:15;6.60;99.90
9975;DHT22;5028;50.974;4.968;2023-02-20T07:22:50;6.60;99.90
9975;DHT22;5028;50.974;4.968;2023-02-20T07:25:20;6.60;99.90
9975;DHT22;5028;50.974;4.968;2023-02-20T07:27:55;6.60;99.90
9975;DHT22;5028;50.974;4.968;2023-02-20T07:30:24;6.60;99.90
9975;DHT22;5028;50.974;4.968;2023-02-20T07:33:01;6.70;99.90
9975;DHT22;5028;50.974;4.968;2023-02-20T07:35:29;6.70;99.90
9975;DHT22;5028;50.974;4.968;2023-02-20T07:38:04;6.70;99.90
9975;DHT22;5028;50.974;4.968;2023-02-20T07:40:33;6.70;99.90
9975;DHT22;5028;50.974;4.968;2023-02-20T07:43:08;6.70;99.90
9975;DHT22;5028;50.974;4.968;2023-02-20T07:45:37;6.70;99.90
9975;DHT22;5028;50.974;4.968;2023-02-20T07:48:14;6.80;99.90
9975;DHT22;5028;50.974;4.968;2023-02-20T07:50:43;6.80;99.90
9975;DHT22;5028;50.974;4.968;2023-02-20T07:53:19;6.80;99.90
9975;DHT22;5028;50.974;4.968;2023-02-20T07:55:48;6.80;99.90
9975;DHT22;5028;50.974;4.968;2023-02-20T07:58:27;6.80;99.90
9975;DHT22;5028;50.974;4.968;2023-02-20T08:00:56;6.80;99.90
9975;DHT22;5028;50.974;4.968;2023-02-20T08:03:33;6.80;99.90
9975;DHT22;5028;50.974;4.968;2023-02-20T08:06:15;6.80;99.90
9975;DHT22;5028;50.974;4.968;2023-02-20T08:08:51;6.90;99.90
9975;DHT22;5028;50.974;4.968;2023-02-20T08:11:21;6.90;99.90
9975;DHT22;5028;50.974;4.968;2023-02-20T08:13:56;6.90;99.90
9975;DHT22;5028;50.974;4.968;2023-02-20T08:16:25;6.90;99.90
9975;DHT22;5028;50.974;4.968;2023-02-20T08:19:02;7.00;99.90
9975;DHT22;5028;50.974;4.968;2023-02-20T08:21:30;7.00;99.90
9975;DHT22;5028;50.974;4.968;2023-02-20T08:24:06;7.00;99.90
9975;DHT22;5028;50.974;4.968;2023-02-20T08:26:42;7.10;99.90
9975;DHT22;5028;50.974;4.968;2023-02-20T08:29:17;7.10;99.90
9975;DHT22;5028;50.974;4.968;2023-02-20T08:31:46;7.10;99.90
9975;DHT22;5028;50.974;4.968;2023-02-20T08:34:22;7.10;99.90
9975;DHT22;5028;50.974;4.968;2023-02-20T08:36:51;7.10;99.90
9975;DHT22;5028;50.974;4.968;2023-02-20T08:39:26;7.20;99.90
9975;DHT22;5028;50.974;4.968;2023-02-20T08:41:55;7.20;99.90
9975;DHT22;5028;50.974;4.968;2023-02-20T08:44:29;7.20;99.90
9975;DHT22;5028;50.974;4.968;2023-02-20T08:46:57;7.20;99.90
9975;DHT22;5028;50.974;4.968;2023-02-20T08:49:35;7.20;99.90
9975;DHT22;5028;50.974;4.968;2023-02-20T08:52:04;7.20;99.90
9975;DHT22;5028;50.974;4.968;2023-02-20T08:54:43;7.20;99.90
9975;DHT22;5028;50.974;4.968;2023-02-20T08:57:17;7.20;99.90
9975;DHT22;5028;50.974;4.968;2023-02-20T08:59:52;7.30;99.90
9975;DHT22;5028;50.974;4.968;2023-02-20T09:02:22;7.30;99.90
9975;DHT22;5028;50.974;4.968;2023-02-20T09:05:03;7.30;99.90
9975;DHT22;5028;50.974;4.968;2023-02-20T09:07:37;7.30;99.90
9975;DHT22;5028;50.974;4.968;2023-02-20T09:10:13;7.30;99.90
9975;DHT22;5028;50.974;4.968;2023-02-20T09:12:42;7.40;99.90
9975;DHT22;5028;50.974;4.968;2023-02-20T09:15:17;7.40;99.90
9975;DHT22;5028;50.974;4.968;2023-02-20T09:17:48;7.40;99.90
9975;DHT22;5028;50.974;4.968;2023-02-20T09:20:25;7.40;99.90
9975;DHT22;5028;50.974;4.968;2023-02-20T09:22:57;7.40;99.90
9975;DHT22;5028;50.974;4.968;2023-02-20T09:25:33;7.50;99.90
9975;DHT22;5028;50.974;4.968;2023-02-20T09:28:02;7.50;99.90
9975;DHT22;5028;50.974;4.968;2023-02-20T09:30:37;7.50;99.90
9975;DHT22;5028;50.974;4.968;2023-02-20T09:33:06;7.60;99.90
9975;DHT22;5028;50.974;4.968;2023-02-20T09:35:42;7.60;99.90
9975;DHT22;5028;50.974;4.968;2023-02-20T09:38:11;7.60;99.90
9975;DHT22;5028;50.974;4.968;2023-02-20T09:40:49;7.60;99.90
9975;DHT22;5028;50.974;4.968;2023-02-20T09:43:29;7.60;99.90
9975;DHT22;5028;50.974;4.968;2023-02-20T09:46:12;7.70;99.90
9975;DHT22;5028;50.974;4.968;2023-02-20T09:48:53;7.60;99.90
9975;DHT22;5028;50.974;4.968;2023-02-20T09:51:36;7.70;99.90
9975;DHT22;5028;50.974;4.968;2023-02-20T09:54:08;7.70;99.90
9975;DHT22;5028;50.974;4.968;2023-02-20T09:56:48;7.70;99.90
9975;DHT22;5028;50.974;4.968;2023-02-20T09:59:21;7.70;99.90
9975;DHT22;5028;50.974;4.968;2023-02-20T10:01:59;7.70;99.90
9975;DHT22;5028;50.974;4.968;2023-02-20T10:04:33;7.70;99.90
9975;DHT22;5028;50.974;4.968;2023-02-20T10:07:29;7.70;99.90
9975;DHT22;5028;50.974;4.968;2023-02-20T10:10:17;7.80;99.90
9975;DHT22;5028;50.974;4.968;2023-02-20T10:12:55;7.70;99.90
9975;DHT22;5028;50.974;4.968;2023-02-20T10:15:39;7.80;99.90
9975;DHT22;5028;50.974;4.968;2023-02-20T10:18:20;7.70;99.90
9975;DHT22;5028;50.974;4.968;2023-02-20T10:21:04;7.70;99.90
9975;DHT22;5028;50.974;4.968;2023-02-20T10:23:43;7.80;99.90
9975;DHT22;5028;50.974;4.968;2023-02-20T10:26:34;7.80;99.90
9975;DHT22;5028;50.974;4.968;2023-02-20T10:29:13;7.80;99.90
9975;DHT22;5028;50.974;4.968;2023-02-20T10:31:52;7.80;99.90
9975;DHT22;5028;50.974;4.968;2023-02-20T10:34:30;7.80;99.90
9975;DHT22;5028;50.974;4.968;2023-02-20T10:37:12;7.90;99.90
9975;DHT22;5028;50.974;4.968;2023-02-20T10:39:48;7.90;99.90
9975;DHT22;5028;50.974;4.968;2023-02-20T10:42:29;7.90;99.90
9975;DHT22;5028;50.974;4.968;2023-02-20T10:45:04;7.90;99.90
9975;DHT22;5028;50.974;4.968;2023-02-20T10:47:45;8.00;99.90
9975;DHT22;5028;50.974;4.968;2023-02-20T10:50:18;8.00;99.90
9975;DHT22;5028;50.974;4.968;2023-02-20T10:52:58;8.00;99.90
9975;DHT22;5028;50.974;4.968;2023-02-20T10:55:35;8.00;99.90
9975;DHT22;5028;50.974;4.968;2023-02-20T10:58:16;8.00;99.90
9975;DHT22;5028;50.974;4.968;2023-02-20T11:00:50;8.10;99.90
9975;DHT22;5028;50.974;4.968;2023-02-20T11:03:40;8.20;99.90
9975;DHT22;5028;50.974;4.968;2023-02-20T11:06:20;8.10;99.90
9975;DHT22;5028;50.974;4.968;2023-02-20T11:08:56;8.20;99.90
9975;DHT22;5028;50.974;4.968;2023-02-20T11:11:30;8.20;99.90
9975;DHT22;5028;50.974;4.968;2023-02-20T11:14:11;8.20;99.90
9975;DHT22;5028;50.974;4.968;2023-02-20T11:17:08;8.30;99.90
9975;DHT22;5028;50.974;4.968;2023-02-20T11:19:40;8.30;99.90
9975;DHT22;5028;50.974;4.968;2023-02-20T11:22:18;8.40;99.90
9975;DHT22;5028;50.974;4.968;2023-02-20T11:25:14;8.30;99.90
9975;DHT22;5028;50.974;4.968;2023-02-20T11:27:53;8.20;99.90
9975;DHT22;5028;50.974;4.968;2023-02-20T11:30:28;8.30;99.90
9975;DHT22;5028;50.974;4.968;2023-02-20T11:33:08;8.20;99.90
9975;DHT22;5028;50.974;4.968;2023-02-20T11:35:40;8.20;99.90
9975;DHT22;5028;50.974;4.968;2023-02-20T11:38:22;8.20;99.90
9975;DHT22;5028;50.974;4.968;2023-02-20T11:41:02;8.30;99.90
9975;DHT22;5028;50.974;4.968;2023-02-20T11:43:41;8.30;99.90
9975;DHT22;5028;50.974;4.968;2023-02-20T11:46:27;8.40;99.90
9975;DHT22;5028;50.974;4.968;2023-02-20T11:49:03;8.40;99.90
9975;DHT22;5028;50.974;4.968;2023-02-20T11:51:37;8.40;99.90
9975;DHT22;5028;50.974;4.968;2023-02-20T11:54:16;8.40;99.90
9975;DHT22;5028;50.974;4.968;2023-02-20T11:56:58;8.40;99.90
9975;DHT22;5028;50.974;4.968;2023-02-20T11:59:32;8.40;99.90
9975;DHT22;5028;50.974;4.968;2023-02-20T12:02:26;8.40;99.90
9975;DHT22;5028;50.974;4.968;2023-02-20T12:05:08;8.40;99.90
9975;DHT22;5028;50.974;4.968;2023-02-20T12:07:52;8.40;99.90
9975;DHT22;5028;50.974;4.968;2023-02-20T12:10:33;8.50;99.90
9975;DHT22;5028;50.974;4.968;2023-02-20T12:13:13;8.40;99.90
9975;DHT22;5028;50.974;4.968;2023-02-20T12:15:50;8.50;99.90
9975;DHT22;5028;50.974;4.968;2023-02-20T12:18:39;8.50;99.90
9975;DHT22;5028;50.974;4.968;2023-02-20T12:21:25;8.60;99.90
9975;DHT22;5028;50.974;4.968;2023-02-20T12:24:09;8.60;99.90
9975;DHT22;5028;50.974;4.968;2023-02-20T12:26:51;8.60;99.90
9975;DHT22;5028;50.974;4.968;2023-02-20T12:29:34;8.70;99.90
9975;DHT22;5028;50.974;4.968;2023-02-20T12:32:30;8.70;99.90
9975;DHT22;5028;50.974;4.968;2023-02-20T12:35:35;8.70;99.90
9975;DHT22;5028;50.974;4.968;2023-02-20T12:38:24;8.70;99.90
9975;DHT22;5028;50.974;4.968;2023-02-20T12:41:24;8.80;99.90
9975;DHT22;5028;50.974;4.968;2023-02-20T12:44:18;8.80;99.90
9975;DHT22;5028;50.974;4.968;2023-02-20T12:47:00;8.80;99.90
9975;DHT22;5028;50.974;4.968;2023-02-20T12:49:54;8.80;99.90
9975;DHT22;5028;50.974;4.968;2023-02-20T12:52:52;8.80;99.90
9975;DHT22;5028;50.974;4.968;2023-02-20T12:55:50;8.80;99.90
9975;DHT22;5028;50.974;4.968;2023-02-20T12:58:31;8.80;99.90
9975;DHT22;5028;50.974;4.968;2023-02-20T13:01:11;8.80;99.90
9975;DHT22;5028;50.974;4.968;2023-02-20T13:03:47;8.80;99.90
9975;DHT22;5028;50.974;4.968;2023-02-20T13:06:31;8.80;99.90
9975;DHT22;5028;50.974;4.968;2023-02-20T13:09:15;8.80;99.90
9975;DHT22;5028;50.974;4.968;2023-02-20T13:11:57;8.80;99.90
9975;DHT22;5028;50.974;4.968;2023-02-20T13:14:36;8.90;99.90
9975;DHT22;5028;50.974;4.968;2023-02-20T13:17:25;8.90;99.90
9975;DHT22;5028;50.974;4.968;2023-02-20T13:20:02;8.80;99.90
9975;DHT22;5028;50.974;4.968;2023-02-20T13:22:41;8.80;99.90
9975;DHT22;5028;50.974;4.968;2023-02-20T13:25:38;8.90;99.90
9975;DHT22;5028;50.974;4.968;2023-02-20T13:28:28;8.90;99.90
9975;DHT22;5028;50.974;4.968;2023-02-20T13:31:18;8.90;99.90
9975;DHT22;5028;50.974;4.968;2023-02-20T13:34:25;9.00;99.90
9975;DHT22;5028;50.974;4.968;2023-02-20T13:36:54;9.00;99.90
9975;DHT22;5028;50.974;4.968;2023-02-20T13:39:40;8.90;99.90
9975;DHT22;5028;50.974;4.968;2023-02-20T13:42:39;8.90;99.90
9975;DHT22;5028;50.974;4.968;2023-02-20T13:45:37;8.90;99.90
9975;DHT22;5028;50.974;4.968;2023-02-20T13:51:32;8.90;99.90
9975;DHT22;5028;50.974;4.968;2023-02-20T13:54:19;8.90;99.90
9975;DHT22;5028;50.974;4.968;2023-02-20T13:56:56;9.00;99.90
9975;DHT22;5028;50.974;4.968;2023-02-20T13:59:36;9.00;99.90
9975;DHT22;5028;50.974;4.968;2023-02-20T14:02:15;9.00;99.90
9975;DHT22;5028;50.974;4.968;2023-02-20T14:05:01;9.00;99.90
9975;DHT22;5028;50.974;4.968;2023-02-20T14:07:33;9.00;99.90
9975;DHT22;5028;50.974;4.968;2023-02-20T14:10:16;9.00;99.90
9975;DHT22;5028;50.974;4.968;2023-02-20T14:12:52;9.10;99.90
9975;DHT22;5028;50.974;4.968;2023-02-20T14:15:31;9.10;99.90
9975;DHT22;5028;50.974;4.968;2023-02-20T14:18:00;9.10;99.90
9975;DHT22;5028;50.974;4.968;2023-02-20T14:20:36;9.20;99.90
9975;DHT22;5028;50.974;4.968;2023-02-20T14:23:09;9.10;99.90
9975;DHT22;5028;50.974;4.968;2023-02-20T14:25:56;9.20;99.90
9975;DHT22;5028;50.974;4.968;2023-02-20T14:28:31;9.20;99.90
9975;DHT22;5028;50.974;4.968;2023-02-20T14:31:18;9.20;99.90
9975;DHT22;5028;50.974;4.968;2023-02-20T14:33:48;9.20;99.90
9975;DHT22;5028;50.974;4.968;2023-02-20T14:39:46;9.40;99.90
9975;DHT22;5028;50.974;4.968;2023-02-20T14:42:23;9.30;99.90
9975;DHT22;5028;50.974;4.968;2023-02-20T14:44:59;9.30;99.90
9975;DHT22;5028;50.974;4.968;2023-02-20T14:47:49;9.30;99.90
9975;DHT22;5028;50.974;4.968;2023-02-20T14:50:21;9.20;99.90
9975;DHT22;5028;50.974;4.968;2023-02-20T14:53:02;9.20;99.90
9975;DHT22;5028;50.974;4.968;2023-02-20T14:55:34;9.10;99.90
9975;DHT22;5028;50.974;4.968;2023-02-20T14:58:13;9.10;99.90
9975;DHT22;5028;50.974;4.968;2023-02-20T15:00:44;9.10;99.90
9975;DHT22;5028;50.974;4.968;2023-02-20T15:03:22;9.10;99.90
9975;DHT22;5028;50.974;4.968;2023-02-20T15:06:12;9.10;99.90
9975;DHT22;5028;50.974;4.968;2023-02-20T15:08:55;9.10;99.90
9975;DHT22;5028;50.974;4.968;2023-02-20T15:11:24;9.00;99.90
9975;DHT22;5028;50.974;4.968;2023-02-20T15:14:01;9.00;99.90
9975;DHT22;5028;50.974;4.968;2023-02-20T15:16:31;9.00;99.90
9975;DHT22;5028;50.974;4.968;2023-02-20T15:19:20;9.00;99.90
9975;DHT22;5028;50.974;4.968;2023-02-20T15:21:56;8.90;99.90
9975;DHT22;5028;50.974;4.968;2023-02-20T15:24:37;8.90;99.90
9975;DHT22;5028;50.974;4.968;2023-02-20T15:27:12;8.90;99.90
9975;DHT22;5028;50.974;4.968;2023-02-20T15:30:07;8.90;99.90
9975;DHT22;5028;50.974;4.968;2023-02-20T15:32:40;8.90;99.90
9975;DHT22;5028;50.974;4.968;2023-02-20T15:35:17;8.90;99.90
9975;DHT22;5028;50.974;4.968;2023-02-20T15:37:47;8.90;99.90
9975;DHT22;5028;50.974;4.968;2023-02-20T15:40:25;8.90;99.90
9975;DHT22;5028;50.974;4.968;2023-02-20T15:42:54;8.90;99.90
9975;DHT22;5028;50.974;4.968;2023-02-20T15:45:49;8.90;99.90
9975;DHT22;5028;50.974;4.968;2023-02-20T15:48:20;8.90;99.90
9975;DHT22;5028;50.974;4.968;2023-02-20T15:50:56;8.90;99.90
9975;DHT22;5028;50.974;4.968;2023-02-20T15:53:27;8.90;99.90
9975;DHT22;5028;50.974;4.968;2023-02-20T15:56:03;8.90;99.90
9975;DHT22;5028;50.974;4.968;2023-02-20T15:58:35;8.90;99.90
9975;DHT22;5028;50.974;4.968;2023-02-20T16:01:11;8.90;99.90
9975;DHT22;5028;50.974;4.968;2023-02-20T16:03:41;8.80;99.90
9975;DHT22;5028;50.974;4.968;2023-02-20T16:06:20;8.90;99.90
9975;DHT22;5028;50.974;4.968;2023-02-20T16:08:55;8.80;99.90
9975;DHT22;5028;50.974;4.968;2023-02-20T16:11:36;8.90;99.90
9975;DHT22;5028;50.974;4.968;2023-02-20T16:14:06;8.90;99.90
9975;DHT22;5028;50.974;4.968;2023-02-20T16:16:44;8.90;99.90
9975;DHT22;5028;50.974;4.968;2023-02-20T16:19:16;8.80;99.90
9975;DHT22;5028;50.974;4.968;2023-02-20T16:22:08;8.80;99.90
9975;DHT22;5028;50.974;4.968;2023-02-20T16:24:38;8.80;99.90
9975;DHT22;5028;50.974;4.968;2023-02-20T16:27:20;8.80;99.90
9975;DHT22;5028;50.974;4.968;2023-02-20T16:29:51;8.80;99.90
9975;DHT22;5028;50.974;4.968;2023-02-20T16:32:28;8.80;99.90
9975;DHT22;5028;50.974;4.968;2023-02-20T16:34:59;8.90;99.90
9975;DHT22;5028;50.974;4.968;2023-02-20T16:37:34;8.80;99.90
9975;DHT22;5028;50.974;4.968;2023-02-20T16:40:04;8.80;99.90
9975;DHT22;5028;50.974;4.968;2023-02-20T16:42:40;8.80;99.90
9975;DHT22;5028;50.974;4.968;2023-02-20T16:45:12;8.90;99.90
9975;DHT22;5028;50.974;4.968;2023-02-20T16:47:49;8.90;99.90
9975;DHT22;5028;50.974;4.968;2023-02-20T16:50:22;8.80;99.90
9975;DHT22;5028;50.974;4.968;2023-02-20T16:52:59;8.80;99.90
9975;DHT22;5028;50.974;4.968;2023-02-20T16:55:33;8.80;99.90
9975;DHT22;5028;50.974;4.968;2023-02-20T16:58:09;8.80;99.90
9975;DHT22;5028;50.974;4.968;2023-02-20T17:00:39;8.80;99.90
9975;DHT22;5028;50.974;4.968;2023-02-20T17:03:23;8.80;99.90
9975;DHT22;5028;50.974;4.968;2023-02-20T17:06:02;8.80;99.90
9975;DHT22;5028;50.974;4.968;2023-02-20T17:08:37;8.80;99.90
9975;DHT22;5028;50.974;4.968;2023-02-20T17:11:11;8.80;99.90
9975;DHT22;5028;50.974;4.968;2023-02-20T17:13:41;8.80;99.90
9975;DHT22;5028;50.974;4.968;2023-02-20T17:16:23;8.80;99.90
9975;DHT22;5028;50.974;4.968;2023-02-20T17:18:57;8.80;99.90
9975;DHT22;5028;50.974;4.968;2023-02-20T17:21:34;8.80;99.90
9975;DHT22;5028;50.974;4.968;2023-02-20T17:24:03;8.80;99.90
9975;DHT22;5028;50.974;4.968;2023-02-20T17:26:38;8.70;99.90
9975;DHT22;5028;50.974;4.968;2023-02-20T17:29:07;8.70;99.90
9975;DHT22;5028;50.974;4.968;2023-02-20T17:31:42;8.70;99.90